Time;durP1;ratioP1;P1;durP2;ratioP2;P2;SDS_P1;SDS_P2;PMS_P1;PMS_P2;Temp;Humidity;BMP_temperature;BMP_pressure;BME280_temperature;BME280_humidity;BME280_pressure;Samples;Min_cycle;Max_cycle;Signal;HPM_P1;HPM_P2
2023/08/30 00:01:39;;;;;;;37.35;24.60;;;;;;;21.96;52.45;92558.56;4969081;28;20117;-91
2023/08/30 00:04:04;;;;;;;38.15;24.52;;;;;;;21.99;52.17;92564.97;4969560;28;20047;-92
2023/08/30 00:06:31;;;;;;;41.40;24.42;;;;;;;21.96;52.26;92563.31;4969581;28;20052;-91
2023/08/30 00:08:58;;;;;;;40.13;23.25;;;;;;;21.98;52.12;92558.00;4969312;28;20042;-91
2023/08/30 00:11:23;;;;;;;39.30;25.10;;;;;;;21.97;52.19;92559.28;4969885;28;20064;-92
2023/08/30 00:13:49;;;;;;;38.15;24.70;;;;;;;21.99;52.11;92564.97;4969149;28;20466;-93
2023/08/30 00:16:16;;;;;;;44.28;24.98;;;;;;;21.95;52.52;92564.63;4968256;28;20038;-91
2023/08/30 00:18:42;;;;;;;38.30;22.48;;;;;;;21.95;51.90;92557.09;4969659;28;20275;-91
2023/08/30 00:21:10;;;;;;;39.45;24.35;;;;;;;21.95;52.40;92564.63;4969846;28;20153;-92
2023/08/30 00:23:35;;;;;;;41.25;23.90;;;;;;;21.95;52.26;92567.38;4970020;28;20046;-92
2023/08/30 00:26:01;;;;;;;37.58;22.73;;;;;;;21.96;52.24;92561.31;4969438;28;20096;-91
2023/08/30 00:28:26;;;;;;;36.25;22.67;;;;;;;21.96;52.22;92564.06;4966758;28;20035;-93
2023/08/30 00:30:55;;;;;;;39.78;22.45;;;;;;;21.96;52.15;92557.81;4970104;28;20034;-92
2023/08/30 00:33:21;;;;;;;33.53;21.50;;;;;;;21.95;52.15;92559.84;4969366;28;20155;-91
2023/08/30 00:35:46;;;;;;;41.08;24.63;;;;;;;21.95;52.26;92557.09;4969066;28;20053;-91
2023/08/30 00:38:11;;;;;;;36.25;22.65;;;;;;;21.97;52.31;92557.28;4963580;28;20050;-92
2023/08/30 00:40:39;;;;;;;34.13;21.88;;;;;;;21.95;52.13;92554.34;4985177;28;20042;-92
2023/08/30 00:43:05;;;;;;;39.30;23.63;;;;;;;21.96;52.29;92557.81;4967946;28;20063;-92
2023/08/30 00:45:32;;;;;;;34.42;22.38;;;;;;;21.94;52.30;92557.63;4959135;28;20042;-92
2023/08/30 00:47:58;;;;;;;34.40;22.20;;;;;;;21.93;52.41;92558.94;4966326;28;20150;-92
2023/08/30 00:50:23;;;;;;;37.63;22.92;;;;;;;21.94;52.34;92569.38;4984864;28;20407;-92
2023/08/30 00:52:49;;;;;;;40.83;22.20;;;;;;;21.95;52.25;92564.63;4960219;28;20034;-92
2023/08/30 00:55:15;;;;;;;36.90;21.67;;;;;;;21.93;52.37;92569.94;4968806;28;20045;-92
2023/08/30 00:57:40;;;;;;;37.10;21.95;;;;;;;21.93;52.42;92556.91;4973382;28;20524;-92
2023/08/30 01:00:07;;;;;;;33.67;20.58;;;;;;;21.96;51.99;92558.56;4989105;28;20030;-92
2023/08/30 01:02:32;;;;;;;33.00;19.92;;;;;;;21.94;52.36;92554.88;4989079;28;20042;-92
2023/08/30 01:04:58;;;;;;;36.97;21.98;;;;;;;21.93;52.24;92558.94;4973418;28;20041;-92
2023/08/30 01:07:23;;;;;;;31.15;20.60;;;;;;;21.93;52.31;92561.69;4972160;28;20073;-92
2023/08/30 01:09:49;;;;;;;32.17;20.17;;;;;;;21.95;51.94;92556.34;4967661;28;20088;-92
2023/08/30 01:12:22;;;;;;;31.88;20.48;;;;;;;21.95;52.28;92548.09;4972164;28;20092;-92
2023/08/30 01:15:09;;;;;;;31.35;20.17;;;;;;;21.93;52.16;92559.66;4990094;28;20463;-92
2023/08/30 01:17:35;;;;;;;37.05;22.15;;;;;;;21.93;52.47;92558.94;4986829;28;20065;-92
2023/08/30 01:20:07;;;;;;;36.17;20.67;;;;;;;21.92;52.17;92558.19;4972013;28;20311;-92
2023/08/30 01:22:57;;;;;;;33.58;20.90;;;;;;;21.92;52.24;92554.72;4972875;28;20088;-91
2023/08/30 01:25:56;;;;;;;29.87;19.70;;;;;;;21.89;52.43;92554.53;4988404;28;20107;-93
2023/08/30 01:28:23;;;;;;;32.65;19.92;;;;;;;21.92;52.57;92554.72;5006321;28;20038;-92
2023/08/30 01:30:48;;;;;;;32.08;20.17;;;;;;;21.95;52.78;92559.09;4972138;28;20826;-92
2023/08/30 01:33:15;;;;;;;29.48;19.77;;;;;;;21.93;52.50;92554.16;4972079;28;20073;-91
2023/08/30 01:35:41;;;;;;;29.88;20.35;;;;;;;21.96;52.17;92549.56;4973113;28;20481;-92
2023/08/30 01:38:06;;;;;;;29.45;18.38;;;;;;;21.92;52.27;92549.94;4971517;28;20061;-91
2023/08/30 01:40:35;;;;;;;26.67;18.38;;;;;;;21.92;52.10;92552.69;4971366;28;20076;-91
2023/08/30 01:43:00;;;;;;;31.52;19.15;;;;;;;21.90;52.30;92553.25;4973162;28;20425;-92
2023/08/30 01:45:26;;;;;;;31.08;19.20;;;;;;;21.92;52.29;92549.22;4972647;28;20034;-92
2023/08/30 01:47:52;;;;;;;31.33;19.48;;;;;;;21.90;52.30;92556.00;4987338;28;20049;-91
2023/08/30 01:50:18;;;;;;;33.33;19.48;;;;;;;21.91;52.10;92553.97;4973433;28;20382;-92
2023/08/30 01:52:43;;;;;;;31.90;20.15;;;;;;;21.92;52.18;92555.44;4970783;28;20125;-92
2023/08/30 01:55:09;;;;;;;33.95;20.63;;;;;;;21.92;52.30;92562.97;4986598;28;20046;-92
2023/08/30 01:57:34;;;;;;;30.90;19.08;;;;;;;21.92;52.27;92560.22;4987587;28;20042;-92
2023/08/30 01:59:59;;;;;;;30.25;18.50;;;;;;;21.93;52.27;92556.19;4972777;28;20102;-92
2023/08/30 02:02:29;;;;;;;28.58;18.10;;;;;;;21.93;52.11;92551.41;4969752;28;20157;-92
2023/08/30 02:04:54;;;;;;;26.52;18.25;;;;;;;21.92;52.12;92558.19;4950819;28;20037;-92
2023/08/30 02:07:30;;;;;;;30.77;19.67;;;;;;;21.88;52.32;92555.81;4950747;28;20034;-91
2023/08/30 02:10:01;;;;;;;27.40;18.52;;;;;;;21.90;52.37;92567.00;4986013;28;20042;-92
2023/08/30 02:12:32;;;;;;;31.15;18.83;;;;;;;21.93;52.22;92575.44;4950224;28;20104;-91
2023/08/30 02:15:00;;;;;;;26.67;18.60;;;;;;;21.91;52.28;92570.50;4954666;28;20073;-91
2023/08/30 02:17:25;;;;;;;31.00;17.90;;;;;;;21.90;52.31;92561.50;4967359;28;20038;-92
2023/08/30 02:19:53;;;;;;;25.00;17.40;;;;;;;21.87;52.21;92565.34;4970435;28;20042;-91
2023/08/30 02:22:19;;;;;;;27.98;17.52;;;;;;;21.88;52.30;92566.81;4969467;28;20046;-91
2023/08/30 02:24:44;;;;;;;29.95;17.17;;;;;;;21.87;52.22;92562.59;4970822;28;20131;-92
2023/08/30 02:27:10;;;;;;;28.77;18.10;;;;;;;21.91;52.26;92562.22;4968274;28;20086;-91
2023/08/30 02:29:35;;;;;;;29.95;18.05;;;;;;;21.88;52.18;92566.09;4983369;28;20053;-91
2023/08/30 02:32:01;;;;;;;30.80;17.95;;;;;;;21.89;52.17;92570.31;4952080;28;20448;-91
2023/08/30 02:34:26;;;;;;;27.45;17.42;;;;;;;21.89;52.35;92565.53;4969138;28;20104;-92
2023/08/30 02:36:51;;;;;;;27.90;15.95;;;;;;;21.90;52.23;92572.50;4972182;28;20038;-93
2023/08/30 02:39:17;;;;;;;28.27;17.40;;;;;;;21.93;52.15;92565.16;4986382;28;20038;-92
2023/08/30 02:41:42;;;;;;;26.48;17.55;;;;;;;21.92;52.27;92571.22;4987357;28;20046;-91
2023/08/30 02:44:11;;;;;;;31.15;17.27;;;;;;;21.92;52.22;92568.47;4970578;28;20034;-93
2023/08/30 02:46:37;;;;;;;29.13;18.05;;;;;;;21.90;52.33;92571.78;4971375;28;20038;-91
2023/08/30 02:49:03;;;;;;;26.60;16.30;;;;;;;21.89;52.23;92567.56;4970835;28;20567;-91
2023/08/30 02:51:28;;;;;;;24.75;16.67;;;;;;;21.87;52.26;92562.59;4971462;28;20041;-91
2023/08/30 02:53:54;;;;;;;30.85;17.55;;;;;;;21.89;52.29;92559.31;4965552;28;20084;-92
2023/08/30 02:56:20;;;;;;;26.42;16.85;;;;;;;21.88;52.26;92560.59;4971722;28;20050;-92
2023/08/30 02:58:45;;;;;;;27.55;16.75;;;;;;;21.89;52.14;92564.81;4987139;28;20258;-93
2023/08/30 03:01:11;;;;;;;24.73;15.93;;;;;;;21.86;52.31;92557.69;4970196;28;20081;-92
2023/08/30 03:03:36;;;;;;;22.20;15.10;;;;;;;21.87;52.08;92559.13;4971939;28;20042;-92
2023/08/30 03:06:02;;;;;;;26.05;16.20;;;;;;;21.86;52.57;92561.16;4968784;28;20041;-93
2023/08/30 03:08:28;;;;;;;27.98;16.83;;;;;;;21.86;52.27;92565.94;4972293;28;20050;-92
2023/08/30 03:10:55;;;;;;;25.60;16.63;;;;;;;21.87;52.49;92565.34;4986579;28;20592;-92
2023/08/30 03:13:20;;;;;;;26.35;16.33;;;;;;;21.85;52.45;92565.19;4983356;28;20037;-91
2023/08/30 03:15:45;;;;;;;26.58;16.23;;;;;;;21.90;52.20;92569.03;4971482;28;20413;-91
2023/08/30 03:18:11;;;;;;;27.95;16.73;;;;;;;21.85;52.32;92556.94;4969331;28;20134;-92
2023/08/30 03:20:36;;;;;;;25.33;16.45;;;;;;;21.86;52.51;92563.19;4972091;28;20045;-92
2023/08/30 03:23:02;;;;;;;25.35;16.77;;;;;;;21.89;52.31;92554.53;4970621;28;20436;-93
2023/08/30 03:25:30;;;;;;;27.48;16.20;;;;;;;21.88;52.18;92566.09;4969127;28;20124;-92
2023/08/30 03:27:56;;;;;;;25.48;15.25;;;;;;;21.89;52.08;92564.81;4969864;28;20045;-93
2023/08/30 03:30:21;;;;;;;26.80;16.67;;;;;;;21.86;52.40;92561.16;4959933;28;20033;-90
2023/08/30 03:32:47;;;;;;;23.17;14.73;;;;;;;21.95;51.94;92561.84;4969148;28;20042;-91
2023/08/30 03:35:16;;;;;;;27.23;16.30;;;;;;;22.00;52.24;92567.19;4967965;28;21715;-89
2023/08/30 03:37:42;;;;;;;30.77;17.98;;;;;;;21.95;52.60;92568.09;4984395;28;20069;-90
2023/08/30 03:40:09;;;;;;;27.73;18.50;;;;;;;21.96;52.39;92572.31;4970355;28;20140;-90
2023/08/30 03:42:34;;;;;;;34.92;22.65;;;;;;;21.99;52.37;92571.22;4986104;28;20296;-90
2023/08/30 03:45:00;;;;;;;30.50;20.17;;;;;;;22.03;52.49;92570.88;4965227;28;20456;-92
2023/08/30 03:47:25;;;;;;;29.25;17.92;;;;;;;22.03;52.23;92568.13;4976657;28;20115;-94
2023/08/30 03:49:51;;;;;;;54.00;29.13;;;;;;;22.14;52.40;92571.19;4983052;28;20050;-92
2023/08/30 03:52:16;;;;;;;34.17;22.77;;;;;;;22.03;52.35;92576.38;4969627;28;20038;-91
2023/08/30 03:54:42;;;;;;;41.08;25.25;;;;;;;22.03;52.04;92574.34;4981255;28;20042;-91
2023/08/30 03:57:07;;;;;;;39.70;17.33;;;;;;;21.91;51.04;92570.50;4967824;28;20045;-90
2023/08/30 03:59:33;;;;;;;69.00;19.15;;;;;;;21.80;50.79;92579.16;4960549;28;20041;-91
2023/08/30 04:01:58;;;;;;;44.63;9.77;;;;;;;21.79;50.27;92570.16;4978317;28;20071;-90
2023/08/30 04:04:24;;;;;;;61.63;13.38;;;;;;;21.70;50.67;92573.47;4987761;28;20129;-88
2023/08/30 04:06:49;;;;;;;46.63;9.45;;;;;;;21.67;50.34;92566.31;4985250;28;20042;-87
2023/08/30 04:09:15;;;;;;;100.85;19.80;;;;;;;21.62;50.37;92566.53;4998909;28;20045;-90
2023/08/30 04:11:42;;;;;;;91.15;20.58;;;;;;;21.58;50.46;92566.88;4990285;28;20043;-90
2023/08/30 04:14:07;;;;;;;259.67;61.40;;;;;;;21.58;50.64;92569.63;4989771;28;20405;-89
2023/08/30 04:16:33;;;;;;;130.52;44.80;;;;;;;21.52;50.53;92575.31;4975817;28;20070;-90
2023/08/30 04:18:59;;;;;;;143.77;43.35;;;;;;;21.47;50.28;92568.00;4974687;28;20048;-88
2023/08/30 04:21:25;;;;;;;120.72;36.08;;;;;;;21.48;50.39;92566.72;4975705;28;20042;-88
2023/08/30 04:23:51;;;;;;;104.72;29.60;;;;;;;21.46;50.34;92569.28;4975225;28;20042;-90
2023/08/30 04:26:18;;;;;;;70.10;23.30;;;;;;;21.43;50.32;92573.16;4991920;28;20038;-91
2023/08/30 04:28:43;;;;;;;62.83;21.42;;;;;;;21.40;50.32;92577.00;4995498;28;20046;-91
2023/08/30 04:31:09;;;;;;;47.58;17.02;;;;;;;21.39;50.33;92578.28;4988841;28;20034;-92
2023/08/30 04:33:34;;;;;;;80.75;19.60;;;;;;;21.44;50.20;92571.84;4981353;28;20325;-93
2023/08/30 04:36:03;;;;;;;47.75;16.42;;;;;;;21.47;50.24;92570.00;4969133;28;20517;-91
2023/08/30 04:38:29;;;;;;;47.22;16.65;;;;;;;21.55;50.29;92573.50;4990451;28;20042;-93
2023/08/30 04:40:59;;;;;;;45.22;18.23;;;;;;;21.52;50.45;92577.34;4982061;28;20045;-94
2023/08/30 04:43:25;;;;;;;71.40;19.53;;;;;;;21.53;50.76;92571.28;4994625;28;20081;-92
2023/08/30 04:45:51;;;;;;;75.15;22.83;;;;;;;21.59;50.98;92571.09;4974464;28;20042;-93
2023/08/30 04:48:17;;;;;;;96.78;25.27;;;;;;;21.61;50.69;92571.28;5002078;28;20050;-93
2023/08/30 04:50:42;;;;;;;70.15;24.55;;;;;;;21.72;51.03;92572.91;5007736;28;20044;-89
2023/08/30 04:53:08;;;;;;;76.57;27.30;;;;;;;21.64;51.09;92580.47;4974125;28;20077;-91
2023/08/30 04:55:33;;;;;;;114.25;30.50;;;;;;;21.61;51.29;92576.06;4998992;28;20056;-91
2023/08/30 04:57:59;;;;;;;96.38;28.52;;;;;;;21.66;51.45;92570.34;5002571;28;20028;-89
2023/08/30 05:00:26;;;;;;;86.78;31.38;;;;;;;21.69;51.11;92563.75;5008355;28;20042;-90
2023/08/30 05:02:52;;;;;;;75.40;29.63;;;;;;;21.70;51.11;92567.97;4979389;28;20057;-91
2023/08/30 05:05:17;;;;;;;81.35;28.42;;;;;;;21.69;51.06;92563.00;4977027;28;20122;-89
2023/08/30 05:07:44;;;;;;;84.78;28.85;;;;;;;21.68;50.99;92562.28;4994749;28;20042;-90
2023/08/30 05:10:09;;;;;;;75.90;27.70;;;;;;;21.72;50.75;92567.41;4991983;28;20709;-91
2023/08/30 05:12:35;;;;;;;93.93;32.53;;;;;;;21.71;51.15;92565.94;4984875;28;20065;-93
2023/08/30 05:15:01;;;;;;;106.50;32.58;;;;;;;21.73;51.20;92572.38;4972167;28;20045;-90
2023/08/30 05:17:28;;;;;;;100.82;30.33;;;;;;;21.76;50.99;92563.00;4992132;28;20076;-92
2023/08/30 05:19:56;;;;;;;63.95;20.23;;;;;;;21.65;51.00;92571.63;4979424;28;20033;-91
2023/08/30 05:22:21;;;;;;;70.88;23.85;;;;;;;21.66;51.17;92564.13;4987069;28;20042;-91
2023/08/30 05:24:47;;;;;;;72.90;24.13;;;;;;;21.75;50.96;92561.53;4973714;28;20479;-89
2023/08/30 05:27:14;;;;;;;108.70;39.60;;;;;;;21.74;50.82;92567.59;4988049;28;20100;-89
2023/08/30 05:29:40;;;;;;;103.38;34.28;;;;;;;21.72;50.97;92570.16;4976137;28;20042;-90
2023/08/30 05:32:05;;;;;;;138.25;40.58;;;;;;;21.71;51.27;92574.94;4968030;28;20042;-92
2023/08/30 05:34:31;;;;;;;177.27;50.22;;;;;;;21.74;50.81;92578.59;4975152;28;20062;-92
2023/08/30 05:36:56;;;;;;;174.15;63.30;;;;;;;21.74;50.90;92571.06;4978461;28;20125;-88
2023/08/30 05:39:22;;;;;;;178.95;64.07;;;;;;;21.73;50.94;92571.63;4974196;28;24714;-89
2023/08/30 05:41:47;;;;;;;178.43;66.28;;;;;;;21.73;51.14;92571.63;4985683;28;20042;-89
2023/08/30 05:44:13;;;;;;;175.43;72.03;;;;;;;21.76;51.36;92579.50;4977589;28;20042;-87
2023/08/30 05:46:38;;;;;;;184.82;84.93;;;;;;;21.76;51.39;92579.50;4996362;28;20065;-88
2023/08/30 05:49:04;;;;;;;216.02;93.88;;;;;;;21.80;50.97;92581.91;4975662;28;20045;-89
2023/08/30 05:51:29;;;;;;;229.90;101.55;;;;;;;21.76;50.89;92574.00;4986300;28;20157;-91
2023/08/30 05:53:54;;;;;;;183.85;88.55;;;;;;;21.77;50.94;92572.00;4968607;28;20046;-89
2023/08/30 05:56:20;;;;;;;241.57;103.22;;;;;;;21.75;51.11;92578.03;4988868;28;20382;-88
2023/08/30 05:58:45;;;;;;;227.05;95.50;;;;;;;21.74;51.21;92573.81;4993545;28;20034;-88
2023/08/30 06:01:11;;;;;;;226.20;93.63;;;;;;;21.79;50.90;92581.16;4984336;28;20046;-91
2023/08/30 06:03:36;;;;;;;251.20;87.07;;;;;;;21.83;51.39;92578.03;4987557;28;20049;-90
2023/08/30 06:06:02;;;;;;;268.08;96.53;;;;;;;21.96;51.09;92569.56;4972608;28;20050;-90
2023/08/30 06:08:27;;;;;;;233.25;94.18;;;;;;;21.88;50.62;92566.81;4992143;28;20050;-89
2023/08/30 06:10:54;;;;;;;262.85;132.73;;;;;;;21.93;50.67;92562.41;4989704;28;20049;-91
2023/08/30 06:13:19;;;;;;;198.98;86.50;;;;;;;21.92;50.78;92574.69;5002430;28;20046;-88
2023/08/30 06:15:45;;;;;;;201.32;86.22;;;;;;;21.89;50.65;92575.81;4975051;28;20037;-91
2023/08/30 06:18:13;;;;;;;179.73;81.00;;;;;;;21.96;50.83;92583.31;4961027;28;20071;-91
2023/08/30 06:20:42;;;;;;;175.05;81.13;;;;;;;21.95;50.65;92581.13;4992353;28;20132;-91
2023/08/30 06:23:07;;;;;;;184.90;79.05;;;;;;;21.95;50.82;92581.13;4964891;28;20456;-92
2023/08/30 06:25:33;;;;;;;155.15;75.15;;;;;;;21.93;50.67;92584.44;4958027;28;20049;-91
2023/08/30 06:27:59;;;;;;;143.75;71.95;;;;;;;21.95;50.84;92586.63;4970991;28;20046;-92
2023/08/30 06:30:26;;;;;;;150.95;72.00;;;;;;;21.93;50.90;92587.19;4964742;28;20052;-92
2023/08/30 06:32:51;;;;;;;164.02;75.68;;;;;;;21.94;50.72;92585.91;5004757;28;20046;-89
2023/08/30 06:35:17;;;;;;;171.10;77.38;;;;;;;21.95;50.77;92586.63;4970392;28;20470;-90
2023/08/30 06:37:42;;;;;;;177.80;72.10;;;;;;;21.99;50.44;92589.75;4972835;28;20445;-90
2023/08/30 06:40:09;;;;;;;305.40;95.80;;;;;;;21.94;50.93;92585.91;4990266;28;20122;-90
2023/08/30 06:42:35;;;;;;;228.63;78.60;;;;;;;21.98;50.99;92582.78;4971729;28;20121;-89
2023/08/30 06:45:02;;;;;;;194.45;79.10;;;;;;;21.98;50.98;92582.78;4975562;28;20374;-88
2023/08/30 06:47:27;;;;;;;213.68;84.80;;;;;;;21.96;50.94;92588.09;4968127;28;20111;-90
2023/08/30 06:49:53;;;;;;;224.55;99.82;;;;;;;21.96;50.96;92593.59;4993838;28;20033;-92
2023/08/30 06:52:18;;;;;;;243.20;99.45;;;;;;;21.97;50.81;92595.06;4991381;28;20042;-92
2023/08/30 06:54:44;;;;;;;218.30;108.55;;;;;;;21.95;50.74;92594.88;4994646;28;20030;-91
2023/08/30 06:57:12;;;;;;;243.57;110.85;;;;;;;21.97;50.51;92598.53;4976670;28;20126;-91
2023/08/30 06:59:39;;;;;;;181.75;88.25;;;;;;;21.89;50.47;92597.81;4968730;28;20045;-90
2023/08/30 07:02:04;;;;;;;195.27;92.55;;;;;;;21.89;50.43;92598.56;4995384;28;20034;-88
2023/08/30 07:04:33;;;;;;;223.23;106.57;;;;;;;21.94;50.55;92596.91;4977720;28;20046;-91
2023/08/30 07:07:00;;;;;;;220.63;111.43;;;;;;;21.92;50.88;92591.22;4964284;28;20039;-88
2023/08/30 07:09:28;;;;;;;194.63;95.88;;;;;;;21.90;50.58;92600.03;4949053;28;20035;-91
2023/08/30 07:12:00;;;;;;;193.68;77.38;;;;;;;21.91;50.53;92598.00;4948829;28;20085;-90
2023/08/30 07:14:39;;;;;;;244.80;88.82;;;;;;;21.92;50.63;92604.25;4966981;28;20150;-92
2023/08/30 07:17:12;;;;;;;177.13;75.70;;;;;;;21.93;50.35;92603.69;4928311;28;20071;-91
2023/08/30 07:19:39;;;;;;;174.13;78.43;;;;;;;21.93;50.40;92606.44;4934584;28;20043;-95
2023/08/30 07:22:05;;;;;;;174.45;75.35;;;;;;;21.91;50.60;92603.50;4936826;29;20063;-93
2023/08/30 07:24:31;;;;;;;173.65;76.95;;;;;;;21.94;50.81;92604.41;4895519;29;20133;-93
2023/08/30 07:26:58;;;;;;;168.38;73.72;;;;;;;21.97;50.54;92619.84;4914701;29;20067;-93
2023/08/30 07:29:26;;;;;;;161.48;77.78;;;;;;;21.98;50.66;92616.53;4893579;29;20048;-92
2023/08/30 07:31:53;;;;;;;180.70;85.47;;;;;;;21.97;50.68;92617.81;4937937;29;20135;-93
2023/08/30 07:34:21;;;;;;;186.05;85.65;;;;;;;21.95;50.63;92623.13;4893901;29;20054;-93
2023/08/30 07:36:54;;;;;;;169.82;89.68;;;;;;;21.96;50.80;92627.34;4913133;28;20098;-93
2023/08/30 07:39:19;;;;;;;189.38;89.50;;;;;;;21.96;51.15;92630.09;4972840;28;20034;-93
2023/08/30 07:41:46;;;;;;;197.10;89.45;;;;;;;21.96;50.92;92632.13;4948924;28;20057;-93
2023/08/30 07:44:11;;;;;;;193.10;89.43;;;;;;;21.99;51.00;92626.25;4947282;28;20050;-91
2023/08/30 07:46:37;;;;;;;183.63;91.90;;;;;;;21.96;50.87;92632.84;4970932;28;20038;-91
2023/08/30 07:49:11;;;;;;;179.05;90.72;;;;;;;21.96;51.11;92632.13;4946043;28;20572;-91
2023/08/30 07:51:38;;;;;;;176.60;84.00;;;;;;;21.97;51.11;92639.81;4974064;28;20069;-92
2023/08/30 07:54:04;;;;;;;168.90;81.88;;;;;;;22.00;51.07;92640.75;4957010;28;20050;-90
2023/08/30 07:56:29;;;;;;;170.82;83.68;;;;;;;22.03;51.16;92642.41;4941114;28;20053;-91
2023/08/30 07:58:55;;;;;;;193.68;90.45;;;;;;;21.99;51.33;92642.03;4945448;28;20500;-91
2023/08/30 08:01:20;;;;;;;185.13;91.53;;;;;;;21.98;51.17;92644.03;4953587;28;20086;-92
2023/08/30 08:03:46;;;;;;;193.13;90.38;;;;;;;21.98;51.88;92651.56;4970051;28;20043;-92
2023/08/30 08:06:12;;;;;;;194.85;91.75;;;;;;;22.01;51.17;92645.72;4979781;28;20065;-91
2023/08/30 08:08:39;;;;;;;186.50;94.57;;;;;;;22.01;51.25;92647.75;4994349;28;20045;-91
2023/08/30 08:11:06;;;;;;;185.82;98.35;;;;;;;22.00;51.27;92652.50;4984358;28;20046;-92
2023/08/30 08:13:31;;;;;;;172.95;93.35;;;;;;;22.01;51.34;92648.47;4980249;28;20049;-91
2023/08/30 08:15:57;;;;;;;167.82;90.00;;;;;;;22.01;51.28;92647.75;4960546;28;20034;-93
2023/08/30 08:18:23;;;;;;;180.63;85.85;;;;;;;21.97;51.54;92653.59;4976975;28;20050;-89
2023/08/30 08:20:49;;;;;;;188.55;88.45;;;;;;;21.99;51.23;92651.03;4956684;28;20065;-90
2023/08/30 08:23:15;;;;;;;168.90;84.70;;;;;;;22.00;51.10;92658.03;4971805;28;20081;-91
2023/08/30 08:25:42;;;;;;;191.23;88.22;;;;;;;22.02;51.09;92665.72;4941698;29;20043;-90
2023/08/30 08:28:07;;;;;;;189.73;84.60;;;;;;;22.03;51.30;92673.44;4955898;29;20096;-91
2023/08/30 08:30:33;;;;;;;188.18;88.65;;;;;;;22.02;51.14;92671.22;4930199;29;20040;-91
2023/08/30 08:32:59;;;;;;;191.82;89.40;;;;;;;22.02;51.09;92680.22;4934786;29;20058;-91
2023/08/30 08:35:25;;;;;;;195.68;82.85;;;;;;;22.02;51.65;92669.22;4955591;28;20051;-92
2023/08/30 08:37:50;;;;;;;210.95;91.63;;;;;;;22.01;51.19;92675.28;4949725;28;20042;-92
2023/08/30 08:40:16;;;;;;;233.80;91.00;;;;;;;22.00;51.31;92680.03;4952051;28;20035;-91
2023/08/30 08:42:42;;;;;;;199.45;94.35;;;;;;;22.02;51.41;92682.25;4944596;28;20613;-90
2023/08/30 08:45:08;;;;;;;207.90;96.35;;;;;;;22.11;50.98;92687.91;4941956;28;20038;-91
2023/08/30 08:47:43;;;;;;;208.70;91.68;;;;;;;22.05;51.22;92673.63;4942853;28;20046;-90
2023/08/30 08:50:09;;;;;;;245.43;95.55;;;;;;;22.05;51.14;92687.38;4951389;28;20090;-91
2023/08/30 08:52:46;;;;;;;209.80;96.22;;;;;;;22.04;51.34;92696.91;4938359;28;20035;-91
2023/08/30 08:55:13;;;;;;;265.42;109.63;;;;;;;22.07;51.18;92684.06;4942606;28;20130;-93
2023/08/30 08:57:39;;;;;;;248.52;108.15;;;;;;;22.06;51.37;92685.34;4971576;28;20106;-91
2023/08/30 09:00:07;;;;;;;253.85;112.03;;;;;;;22.06;51.26;92682.59;4977656;28;20202;-89
2023/08/30 09:02:32;;;;;;;264.05;126.13;;;;;;;22.08;51.21;92685.53;4979465;28;20038;-90
2023/08/30 09:04:58;;;;;;;275.10;152.80;;;;;;;22.12;51.18;92686.63;4991416;28;20040;-90
2023/08/30 09:07:25;;;;;;;243.73;119.00;;;;;;;22.08;51.29;92683.53;4962993;28;20073;-91
2023/08/30 09:09:52;;;;;;;285.73;138.50;;;;;;;22.09;51.44;92681.47;4968561;28;20041;-93
2023/08/30 09:12:17;;;;;;;294.02;148.48;;;;;;;22.14;51.16;92686.06;4956962;28;20401;-90
2023/08/30 09:14:54;;;;;;;230.38;121.93;;;;;;;22.08;51.40;92682.78;4960795;28;20073;-92
2023/08/30 09:17:19;;;;;;;175.43;77.20;;;;;;;22.05;50.22;92687.38;4971657;28;20705;-94
2023/08/30 09:19:45;;;;;;;190.77;80.68;;;;;;;21.97;50.95;92681.09;4959146;28;20146;-92
2023/08/30 09:22:10;;;;;;;151.00;73.13;;;;;;;21.97;50.57;92686.63;4981789;28;20038;-91
2023/08/30 09:24:39;;;;;;;149.82;72.13;;;;;;;21.96;50.69;92689.91;4990149;28;20520;-90
2023/08/30 09:27:05;;;;;;;176.40;83.05;;;;;;;21.96;51.18;92689.91;4980863;28;20058;-91
2023/08/30 09:29:30;;;;;;;118.43;54.30;;;;;;;21.89;50.37;92686.59;4981334;28;20077;-93
2023/08/30 09:31:55;;;;;;;126.65;56.72;;;;;;;21.89;50.55;92688.63;4989828;28;20072;-90
2023/08/30 09:34:25;;;;;;;132.65;60.08;;;;;;;21.92;50.67;92690.28;4999052;28;20517;-88
2023/08/30 09:36:50;;;;;;;117.60;58.60;;;;;;;21.87;50.80;92689.19;4968941;28;20100;-88
2023/08/30 09:39:16;;;;;;;130.38;50.17;;;;;;;21.87;50.62;92696.69;4971758;28;20050;-89
2023/08/30 09:41:46;;;;;;;146.70;47.80;;;;;;;21.84;50.37;92701.31;4997816;28;20049;-90
2023/08/30 09:44:15;;;;;;;122.93;40.28;;;;;;;21.71;50.93;92701.47;5006002;28;20831;-93
2023/08/30 09:46:45;;;;;;;89.63;31.40;;;;;;;21.65;51.06;92698.16;4989016;28;20392;-89
2023/08/30 09:49:11;;;;;;;84.60;31.35;;;;;;;21.59;51.02;92700.38;4989946;28;20040;-90
2023/08/30 09:51:38;;;;;;;109.28;31.02;;;;;;;21.53;51.02;92695.03;4977906;28;20037;-91
2023/08/30 09:54:04;;;;;;;137.68;31.67;;;;;;;21.56;51.16;92693.22;4976563;28;20034;-92
2023/08/30 09:56:32;;;;;;;93.70;30.73;;;;;;;21.61;51.04;92697.06;4992047;28;20069;-93
2023/08/30 09:58:59;;;;;;;241.48;42.42;;;;;;;21.66;50.93;92691.38;4980786;28;20579;-93
2023/08/30 10:01:26;;;;;;;118.00;36.50;;;;;;;21.70;51.00;92688.25;4985698;28;20046;-92
2023/08/30 10:03:51;;;;;;;107.30;38.08;;;;;;;21.72;50.79;92683.69;4964807;28;20034;-94
2023/08/30 10:06:17;;;;;;;101.50;34.97;;;;;;;21.73;51.01;92682.41;4977117;28;20780;-92
2023/08/30 10:08:42;;;;;;;99.57;34.97;;;;;;;21.78;50.85;92691.75;4977185;28;20375;-92
2023/08/30 10:11:11;;;;;;;99.68;36.50;;;;;;;21.81;50.67;92679.66;4978336;28;20038;-92
2023/08/30 10:13:36;;;;;;;103.75;36.97;;;;;;;21.80;50.82;92681.69;4989829;28;20034;-92
2023/08/30 10:16:05;;;;;;;96.90;37.00;;;;;;;21.82;50.79;92683.88;4978987;28;20026;-92
2023/08/30 10:18:32;;;;;;;81.95;37.78;;;;;;;21.84;50.93;92673.78;4982254;28;20041;-92
2023/08/30 10:20:57;;;;;;;85.97;37.47;;;;;;;21.85;50.82;92680.03;4968259;28;20121;-93
2023/08/30 10:23:22;;;;;;;93.70;37.65;;;;;;;21.83;51.02;92669.56;4995707;28;20042;-93
2023/08/30 10:25:48;;;;;;;279.88;224.90;;;;;;;21.92;50.85;92671.00;4979378;28;20092;-91
2023/08/30 10:28:13;;;;;;;807.58;594.70;;;;;;;21.97;51.50;92672.13;4972274;28;20050;-92
2023/08/30 10:30:39;;;;;;;139.93;81.72;;;;;;;22.00;50.67;92671.03;4978084;28;20100;-88
2023/08/30 10:33:12;;;;;;;81.55;44.38;;;;;;;21.97;50.70;92677.63;4977672;28;20042;-91
2023/08/30 10:35:48;;;;;;;298.75;252.50;;;;;;;21.97;51.08;92672.84;4988065;28;20042;-91
2023/08/30 10:38:23;;;;;;;136.02;97.13;;;;;;;22.01;50.78;92662.25;4993741;28;20057;-90
2023/08/30 10:40:49;;;;;;;76.05;39.55;;;;;;;22.02;50.54;92662.97;4978204;28;20030;-90
2023/08/30 10:43:15;;;;;;;82.57;43.28;;;;;;;21.99;50.87;92667.53;4975354;28;20034;-92
2023/08/30 10:45:42;;;;;;;77.60;38.33;;;;;;;22.00;50.71;92663.53;4993040;28;20342;-90
2023/08/30 10:48:11;;;;;;;88.47;39.05;;;;;;;22.00;50.86;92665.50;4982249;28;20104;-93
2023/08/30 10:50:36;;;;;;;76.63;37.65;;;;;;;22.01;50.65;92670.50;4974774;28;20105;-94
2023/08/30 10:53:12;;;;;;;57.83;35.92;;;;;;;21.99;50.92;92658.53;4959044;28;20101;-92
2023/08/30 10:55:38;;;;;;;66.25;36.00;;;;;;;22.00;50.83;92666.28;4953574;28;20094;-92
2023/08/30 10:58:06;;;;;;;76.43;38.45;;;;;;;21.98;50.78;92663.31;4947688;28;20080;-93
2023/08/30 11:00:32;;;;;;;61.50;34.78;;;;;;;21.98;51.07;92665.34;4937436;28;20441;-94
2023/08/30 11:02:57;;;;;;;107.20;42.55;;;;;;;21.98;50.89;92677.06;4934535;28;20051;-92
2023/08/30 11:05:24;;;;;;;85.40;36.03;;;;;;;21.97;51.13;92672.13;4921358;29;20082;-94
2023/08/30 11:07:50;;;;;;;79.47;35.72;;;;;;;21.99;50.78;92680.56;4933987;28;20039;-94
2023/08/30 11:10:16;;;;;;;78.68;38.20;;;;;;;22.00;50.84;92668.25;4930856;28;20049;-93